sensor_id;sensor_type;location;lat;lon;timestamp;pressure;altitude;pressure_sealevel;temperature;humidity
79269;BME280;68714;48.586;7.772;2023-05-23T00:01:33;99730.06;;;19.76;57.89
79269;BME280;68714;48.586;7.772;2023-05-23T00:04:01;99730.94;;;19.66;59.91
79269;BME280;68714;48.586;7.772;2023-05-23T00:06:27;99722.53;;;19.70;57.70
79269;BME280;68714;48.586;7.772;2023-05-23T00:08:53;99713.91;;;19.67;57.69
79269;BME280;68714;48.586;7.772;2023-05-23T00:11:18;99725.47;;;19.67;57.89
79269;BME280;68714;48.586;7.772;2023-05-23T00:13:45;99723.28;;;19.61;57.97
79269;BME280;68714;48.586;7.772;2023-05-23T00:16:10;99724.25;;;19.60;58.28
79269;BME280;68714;48.586;7.772;2023-05-23T00:18:37;99730.59;;;19.59;58.31
79269;BME280;68714;48.586;7.772;2023-05-23T00:21:04;99729.25;;;19.53;58.38
79269;BME280;68714;48.586;7.772;2023-05-23T00:23:30;99729.38;;;19.52;58.47
79269;BME280;68714;48.586;7.772;2023-05-23T00:25:58;99734.00;;;19.50;58.37
79269;BME280;68714;48.586;7.772;2023-05-23T00:28:24;99727.91;;;19.48;58.48
79269;BME280;68714;48.586;7.772;2023-05-23T00:30:50;99736.94;;;19.47;58.57
79269;BME280;68714;48.586;7.772;2023-05-23T00:33:16;99736.19;;;19.45;58.69
79269;BME280;68714;48.586;7.772;2023-05-23T00:35:41;99737.19;;;19.43;58.82
79269;BME280;68714;48.586;7.772;2023-05-23T00:38:08;99740.94;;;19.41;58.92
79269;BME280;68714;48.586;7.772;2023-05-23T00:40:35;99736.69;;;19.38;58.88
79269;BME280;68714;48.586;7.772;2023-05-23T00:43:01;99735.00;;;19.37;59.06
79269;BME280;68714;48.586;7.772;2023-05-23T00:45:27;99739.72;;;19.34;59.23
79269;BME280;68714;48.586;7.772;2023-05-23T00:47:52;99740.84;;;19.31;59.14
79269;BME280;68714;48.586;7.772;2023-05-23T00:50:18;99732.06;;;19.29;59.27
79269;BME280;68714;48.586;7.772;2023-05-23T00:52:45;99735.72;;;19.28;59.43
79269;BME280;68714;48.586;7.772;2023-05-23T00:55:12;99727.19;;;19.23;59.70
79269;BME280;68714;48.586;7.772;2023-05-23T00:57:39;99742.53;;;19.21;59.85
79269;BME280;68714;48.586;7.772;2023-05-23T01:00:10;99740.22;;;19.16;59.82
79269;BME280;68714;48.586;7.772;2023-05-23T01:02:42;99747.66;;;19.13;59.94
79269;BME280;68714;48.586;7.772;2023-05-23T01:05:14;99755.78;;;19.11;60.07
79269;BME280;68714;48.586;7.772;2023-05-23T01:07:45;99747.97;;;19.08;60.18
79269;BME280;68714;48.586;7.772;2023-05-23T01:10:12;99757.97;;;19.06;60.27
79269;BME280;68714;48.586;7.772;2023-05-23T01:15:13;99755.75;;;19.00;60.21
79269;BME280;68714;48.586;7.772;2023-05-23T01:17:54;99752.38;;;18.98;60.29
79269;BME280;68714;48.586;7.772;2023-05-23T01:20:56;99751.13;;;19.02;61.28
79269;BME280;68714;48.586;7.772;2023-05-23T01:23:51;99746.78;;;19.01;60.74
79269;BME280;68714;48.586;7.772;2023-05-23T01:29:23;99756.25;;;18.94;60.60
79269;BME280;68714;48.586;7.772;2023-05-23T01:31:52;99762.56;;;18.93;60.65
79269;BME280;68714;48.586;7.772;2023-05-23T01:34:20;99754.88;;;18.88;60.72
79269;BME280;68714;48.586;7.772;2023-05-23T01:36:49;99759.38;;;18.87;60.45
79269;BME280;68714;48.586;7.772;2023-05-23T01:39:15;99755.88;;;18.87;60.77
79269;BME280;68714;48.586;7.772;2023-05-23T01:41:41;99760.34;;;18.86;60.77
79269;BME280;68714;48.586;7.772;2023-05-23T01:44:06;99759.59;;;18.84;60.84
79269;BME280;68714;48.586;7.772;2023-05-23T01:46:33;99765.81;;;18.85;60.82
79269;BME280;68714;48.586;7.772;2023-05-23T01:49:01;99772.13;;;18.84;60.74
79269;BME280;68714;48.586;7.772;2023-05-23T01:51:28;99763.13;;;18.85;61.06
79269;BME280;68714;48.586;7.772;2023-05-23T01:53:55;99771.91;;;18.87;61.05
79269;BME280;68714;48.586;7.772;2023-05-23T01:56:21;99763.78;;;18.88;61.08
79269;BME280;68714;48.586;7.772;2023-05-23T01:58:47;99774.25;;;18.92;61.10
79269;BME280;68714;48.586;7.772;2023-05-23T02:01:13;99768.25;;;18.88;61.29
79269;BME280;68714;48.586;7.772;2023-05-23T02:03:39;99769.38;;;18.85;61.06
79269;BME280;68714;48.586;7.772;2023-05-23T02:06:05;99769.44;;;18.84;61.22
79269;BME280;68714;48.586;7.772;2023-05-23T02:08:30;99770.66;;;18.80;61.34
79269;BME280;68714;48.586;7.772;2023-05-23T02:10:56;99772.47;;;18.79;61.63
79269;BME280;68714;48.586;7.772;2023-05-23T02:23:43;99779.03;;;18.75;61.41
79269;BME280;68714;48.586;7.772;2023-05-23T02:26:09;99785.44;;;18.72;61.53
79269;BME280;68714;48.586;7.772;2023-05-23T02:28:34;99786.53;;;18.70;61.73
79269;BME280;68714;48.586;7.772;2023-05-23T02:31:01;99779.50;;;18.69;61.87
79269;BME280;68714;48.586;7.772;2023-05-23T02:33:27;99783.88;;;18.70;61.84
79269;BME280;68714;48.586;7.772;2023-05-23T02:35:53;99780.56;;;18.66;61.88
79269;BME280;68714;48.586;7.772;2023-05-23T02:38:19;99777.16;;;18.64;61.87
79269;BME280;68714;48.586;7.772;2023-05-23T02:40:45;99779.13;;;18.62;61.79
79269;BME280;68714;48.586;7.772;2023-05-23T02:43:11;99787.47;;;18.58;61.92
79269;BME280;68714;48.586;7.772;2023-05-23T02:45:36;99789.50;;;18.54;61.90
79269;BME280;68714;48.586;7.772;2023-05-23T02:48:02;99791.47;;;18.52;61.79
79269;BME280;68714;48.586;7.772;2023-05-23T02:50:27;99798.41;;;18.54;61.77
79269;BME280;68714;48.586;7.772;2023-05-23T02:52:53;99795.97;;;18.51;61.75
79269;BME280;68714;48.586;7.772;2023-05-23T02:55:18;99799.47;;;18.52;61.84
79269;BME280;68714;48.586;7.772;2023-05-23T02:57:44;99798.88;;;18.48;61.93
79269;BME280;68714;48.586;7.772;2023-05-23T03:00:09;99802.16;;;18.52;61.97
79269;BME280;68714;48.586;7.772;2023-05-23T03:02:35;99789.75;;;18.51;62.02
79269;BME280;68714;48.586;7.772;2023-05-23T03:05:01;99787.84;;;18.53;61.89
79269;BME280;68714;48.586;7.772;2023-05-23T03:07:29;99796.47;;;18.57;61.77
79269;BME280;68714;48.586;7.772;2023-05-23T03:09:55;99794.50;;;18.59;61.57
79269;BME280;68714;48.586;7.772;2023-05-23T03:12:21;99797.31;;;18.57;61.92
79269;BME280;68714;48.586;7.772;2023-05-23T03:14:46;99789.63;;;18.52;61.71
79269;BME280;68714;48.586;7.772;2023-05-23T03:17:13;99790.09;;;18.46;61.81
79269;BME280;68714;48.586;7.772;2023-05-23T03:19:38;99790.97;;;18.47;61.94
79269;BME280;68714;48.586;7.772;2023-05-23T03:22:04;99792.88;;;18.45;61.83
79269;BME280;68714;48.586;7.772;2023-05-23T03:24:29;99794.81;;;18.43;61.96
79269;BME280;68714;48.586;7.772;2023-05-23T03:26:56;99791.19;;;18.44;61.94
79269;BME280;68714;48.586;7.772;2023-05-23T03:29:21;99788.59;;;18.42;62.01
79269;BME280;68714;48.586;7.772;2023-05-23T03:31:46;99797.72;;;18.40;62.02
79269;BME280;68714;48.586;7.772;2023-05-23T03:34:13;99802.31;;;18.38;61.94
79269;BME280;68714;48.586;7.772;2023-05-23T03:36:39;99798.06;;;18.35;61.98
79269;BME280;68714;48.586;7.772;2023-05-23T03:39:05;99801.47;;;18.37;62.08
79269;BME280;68714;48.586;7.772;2023-05-23T03:41:30;99808.75;;;18.35;62.08
79269;BME280;68714;48.586;7.772;2023-05-23T03:43:57;99806.09;;;18.35;62.21
79269;BME280;68714;48.586;7.772;2023-05-23T03:46:22;99807.03;;;18.34;62.02
79269;BME280;68714;48.586;7.772;2023-05-23T03:48:48;99806.09;;;18.35;61.85
79269;BME280;68714;48.586;7.772;2023-05-23T03:51:13;99808.88;;;18.33;62.10
79269;BME280;68714;48.586;7.772;2023-05-23T03:53:39;99804.25;;;18.35;61.90
79269;BME280;68714;48.586;7.772;2023-05-23T03:56:05;99810.44;;;18.36;62.21
79269;BME280;68714;48.586;7.772;2023-05-23T03:58:30;99804.38;;;18.34;61.99
79269;BME280;68714;48.586;7.772;2023-05-23T04:00:56;99807.75;;;18.36;62.04
79269;BME280;68714;48.586;7.772;2023-05-23T04:03:22;99806.81;;;18.37;61.96
79269;BME280;68714;48.586;7.772;2023-05-23T04:05:48;99817.38;;;18.39;61.88
79269;BME280;68714;48.586;7.772;2023-05-23T04:08:13;99827.13;;;18.40;62.32
79269;BME280;68714;48.586;7.772;2023-05-23T04:10:39;99819.22;;;18.38;61.91
79269;BME280;68714;48.586;7.772;2023-05-23T04:13:05;99814.94;;;18.35;61.83
79269;BME280;68714;48.586;7.772;2023-05-23T04:15:31;99820.50;;;18.32;62.04
79269;BME280;68714;48.586;7.772;2023-05-23T04:17:58;99831.44;;;18.29;62.00
79269;BME280;68714;48.586;7.772;2023-05-23T04:20:24;99829.94;;;18.25;61.90
79269;BME280;68714;48.586;7.772;2023-05-23T04:22:50;99823.03;;;18.23;62.14
79269;BME280;68714;48.586;7.772;2023-05-23T04:25:15;99830.81;;;18.26;62.24
79269;BME280;68714;48.586;7.772;2023-05-23T04:27:43;99834.09;;;18.29;62.21
79269;BME280;68714;48.586;7.772;2023-05-23T04:30:08;99826.19;;;18.28;62.18
79269;BME280;68714;48.586;7.772;2023-05-23T04:32:34;99827.16;;;18.27;62.17
79269;BME280;68714;48.586;7.772;2023-05-23T04:35:00;99835.94;;;18.29;62.27
79269;BME280;68714;48.586;7.772;2023-05-23T04:37:32;99836.53;;;18.32;62.29
79269;BME280;68714;48.586;7.772;2023-05-23T04:39:57;99839.09;;;18.34;62.17
79269;BME280;68714;48.586;7.772;2023-05-23T04:42:24;99844.94;;;18.39;62.07
79269;BME280;68714;48.586;7.772;2023-05-23T04:44:50;99842.91;;;18.43;61.98
79269;BME280;68714;48.586;7.772;2023-05-23T04:47:17;99845.13;;;18.49;62.02
79269;BME280;68714;48.586;7.772;2023-05-23T04:49:43;99842.00;;;18.55;61.93
79269;BME280;68714;48.586;7.772;2023-05-23T04:52:09;99859.41;;;18.61;61.79
79269;BME280;68714;48.586;7.772;2023-05-23T04:54:36;99858.78;;;18.57;61.82
79269;BME280;68714;48.586;7.772;2023-05-23T04:57:02;99857.53;;;18.50;61.61
79269;BME280;68714;48.586;7.772;2023-05-23T04:59:27;99857.44;;;18.51;61.82
79269;BME280;68714;48.586;7.772;2023-05-23T05:01:53;99863.84;;;18.49;62.04
79269;BME280;68714;48.586;7.772;2023-05-23T05:04:19;99866.63;;;18.47;61.83
79269;BME280;68714;48.586;7.772;2023-05-23T05:06:44;99867.59;;;18.46;61.75
79269;BME280;68714;48.586;7.772;2023-05-23T05:09:12;99868.34;;;18.48;61.66
79269;BME280;68714;48.586;7.772;2023-05-23T05:11:37;99868.13;;;18.51;61.83
79269;BME280;68714;48.586;7.772;2023-05-23T05:14:03;99871.53;;;18.53;61.72
79269;BME280;68714;48.586;7.772;2023-05-23T05:16:28;99871.63;;;18.52;61.68
79269;BME280;68714;48.586;7.772;2023-05-23T05:18:57;99871.63;;;18.52;61.83
79269;BME280;68714;48.586;7.772;2023-05-23T05:21:23;99876.75;;;18.55;61.69
79269;BME280;68714;48.586;7.772;2023-05-23T05:23:49;99887.09;;;18.60;61.69
79269;BME280;68714;48.586;7.772;2023-05-23T05:26:15;99882.25;;;18.65;61.59
79269;BME280;68714;48.586;7.772;2023-05-23T05:28:41;99881.78;;;18.71;61.43
79269;BME280;68714;48.586;7.772;2023-05-23T05:31:07;99881.91;;;18.69;61.21
79269;BME280;68714;48.586;7.772;2023-05-23T05:33:32;99884.69;;;18.68;61.41
79269;BME280;68714;48.586;7.772;2023-05-23T05:36:05;99877.31;;;18.71;61.36
79269;BME280;68714;48.586;7.772;2023-05-23T08:13:36;99975.69;;;19.74;57.25
79269;BME280;68714;48.586;7.772;2023-05-23T08:16:03;99961.91;;;19.68;57.21
79269;BME280;68714;48.586;7.772;2023-05-23T08:18:29;99980.88;;;19.65;57.05
79269;BME280;68714;48.586;7.772;2023-05-23T08:20:55;99968.09;;;19.57;57.12
79269;BME280;68714;48.586;7.772;2023-05-23T08:23:21;99976.94;;;19.46;56.99
79269;BME280;68714;48.586;7.772;2023-05-23T08:25:51;99975.97;;;19.36;57.21
79269;BME280;68714;48.586;7.772;2023-05-23T08:28:17;99974.25;;;19.35;57.38
79269;BME280;68714;48.586;7.772;2023-05-23T08:30:43;99979.13;;;19.41;57.42
79269;BME280;68714;48.586;7.772;2023-05-23T08:33:10;99979.25;;;19.51;57.37
79269;BME280;68714;48.586;7.772;2023-05-23T13:21:08;100014.16;;;22.05;47.12
79269;BME280;68714;48.586;7.772;2023-05-23T13:23:34;100009.59;;;22.26;46.56
79269;BME280;68714;48.586;7.772;2023-05-23T13:26:02;99998.38;;;22.42;46.64
79269;BME280;68714;48.586;7.772;2023-05-23T13:28:28;100003.63;;;22.44;46.23
79269;BME280;68714;48.586;7.772;2023-05-23T13:30:53;100002.59;;;22.35;45.98
79269;BME280;68714;48.586;7.772;2023-05-23T13:33:19;99996.69;;;22.41;45.93
79269;BME280;68714;48.586;7.772;2023-05-23T13:35:47;99999.16;;;22.54;44.88
79269;BME280;68714;48.586;7.772;2023-05-23T13:38:14;100001.75;;;22.35;45.41
79269;BME280;68714;48.586;7.772;2023-05-23T13:40:40;99993.97;;;22.11;45.09
79269;BME280;68714;48.586;7.772;2023-05-23T13:43:05;99996.63;;;22.01;45.43
79269;BME280;68714;48.586;7.772;2023-05-23T13:45:31;99996.28;;;21.94;45.36
79269;BME280;68714;48.586;7.772;2023-05-23T13:47:58;99993.53;;;22.05;45.45
79269;BME280;68714;48.586;7.772;2023-05-23T13:50:24;99986.47;;;22.35;45.74
79269;BME280;68714;48.586;7.772;2023-05-23T13:52:50;99990.69;;;22.78;45.19
79269;BME280;68714;48.586;7.772;2023-05-23T13:55:16;99983.78;;;22.95;44.40
79269;BME280;68714;48.586;7.772;2023-05-23T13:57:43;99989.16;;;22.95;44.08
79269;BME280;68714;48.586;7.772;2023-05-23T14:00:09;99980.38;;;22.93;44.53
79269;BME280;68714;48.586;7.772;2023-05-23T14:02:35;99983.06;;;23.03;44.10
79269;BME280;68714;48.586;7.772;2023-05-23T14:05:01;99985.75;;;22.93;43.06
79269;BME280;68714;48.586;7.772;2023-05-23T14:07:29;99985.88;;;22.72;43.88
79269;BME280;68714;48.586;7.772;2023-05-23T14:09:55;99985.16;;;22.80;43.67
79269;BME280;68714;48.586;7.772;2023-05-23T14:12:22;99977.81;;;23.02;43.42
79269;BME280;68714;48.586;7.772;2023-05-23T14:14:48;99984.22;;;23.01;43.11
79269;BME280;68714;48.586;7.772;2023-05-23T14:17:16;99986.88;;;22.91;43.05
79269;BME280;68714;48.586;7.772;2023-05-23T14:19:42;99991.69;;;22.77;43.00
79269;BME280;68714;48.586;7.772;2023-05-23T14:22:09;99997.72;;;22.60;43.50
79269;BME280;68714;48.586;7.772;2023-05-23T14:24:35;99985.38;;;22.48;43.87
79269;BME280;68714;48.586;7.772;2023-05-23T14:27:01;99986.94;;;22.50;43.57
79269;BME280;68714;48.586;7.772;2023-05-23T14:29:26;100002.94;;;22.42;43.63
79269;BME280;68714;48.586;7.772;2023-05-23T14:31:52;99995.38;;;22.36;43.70
79269;BME280;68714;48.586;7.772;2023-05-23T14:34:18;99993.09;;;22.31;43.84
79269;BME280;68714;48.586;7.772;2023-05-23T14:36:43;99985.81;;;22.22;44.22
79269;BME280;68714;48.586;7.772;2023-05-23T14:39:09;99996.97;;;22.17;44.27
79269;BME280;68714;48.586;7.772;2023-05-23T14:41:34;99995.97;;;22.08;44.43
79269;BME280;68714;48.586;7.772;2023-05-23T14:44:02;99989.28;;;22.03;44.01
79269;BME280;68714;48.586;7.772;2023-05-23T14:46:28;99986.53;;;21.93;44.33
79269;BME280;68714;48.586;7.772;2023-05-23T14:48:53;99980.50;;;22.01;44.51
79269;BME280;68714;48.586;7.772;2023-05-23T14:51:19;99992.00;;;22.13;44.34
79269;BME280;68714;48.586;7.772;2023-05-23T14:53:44;99983.25;;;22.20;44.35
79269;BME280;68714;48.586;7.772;2023-05-23T14:56:10;99977.34;;;22.26;44.22
79269;BME280;68714;48.586;7.772;2023-05-23T14:58:35;99981.38;;;22.32;44.05
79269;BME280;68714;48.586;7.772;2023-05-23T15:01:01;99977.94;;;22.30;43.77
79269;BME280;68714;48.586;7.772;2023-05-23T15:03:28;99975.53;;;22.27;43.55
79269;BME280;68714;48.586;7.772;2023-05-23T15:05:53;99974.63;;;22.17;43.47
79269;BME280;68714;48.586;7.772;2023-05-23T15:08:19;99976.41;;;22.06;43.43
79269;BME280;68714;48.586;7.772;2023-05-23T15:18:30;99965.38;;;22.31;43.39
79269;BME280;68714;48.586;7.772;2023-05-23T15:20:56;99971.44;;;22.64;43.19
79269;BME280;68714;48.586;7.772;2023-05-23T15:23:21;99960.00;;;23.01;42.62
79269;BME280;68714;48.586;7.772;2023-05-23T15:25:47;99961.44;;;23.34;41.94
79269;BME280;68714;48.586;7.772;2023-05-23T15:28:13;99955.72;;;23.57;41.44
79269;BME280;68714;48.586;7.772;2023-05-23T15:30:39;99950.75;;;23.72;41.13
79269;BME280;68714;48.586;7.772;2023-05-23T15:33:04;99948.47;;;23.86;41.18
79269;BME280;68714;48.586;7.772;2023-05-23T15:35:32;99953.50;;;24.09;40.34
79269;BME280;68714;48.586;7.772;2023-05-23T15:37:58;99953.22;;;24.12;40.21
79269;BME280;68714;48.586;7.772;2023-05-23T15:40:25;99953.75;;;24.16;39.76
79269;BME280;68714;48.586;7.772;2023-05-23T15:42:50;99946.81;;;24.13;38.86
79269;BME280;68714;48.586;7.772;2023-05-23T15:45:16;99952.69;;;23.99;38.91
79269;BME280;68714;48.586;7.772;2023-05-23T15:47:41;99951.03;;;23.88;39.31
79269;BME280;68714;48.586;7.772;2023-05-23T15:50:07;99949.78;;;24.10;39.60
79269;BME280;68714;48.586;7.772;2023-05-23T15:52:35;99941.63;;;24.30;39.01
79269;BME280;68714;48.586;7.772;2023-05-23T15:55:00;99946.28;;;24.65;38.81
79269;BME280;68714;48.586;7.772;2023-05-23T15:57:29;99933.44;;;24.49;35.26
79269;BME280;68714;48.586;7.772;2023-05-23T15:59:54;99946.19;;;24.19;39.08
79269;BME280;68714;48.586;7.772;2023-05-23T16:02:20;99949.72;;;23.82;39.39
79269;BME280;68714;48.586;7.772;2023-05-23T16:04:47;99952.47;;;23.63;40.13
79269;BME280;68714;48.586;7.772;2023-05-23T16:07:12;99956.88;;;23.44;40.19
79269;BME280;68714;48.586;7.772;2023-05-23T16:09:38;99955.50;;;23.21;40.23
79269;BME280;68714;48.586;7.772;2023-05-23T16:12:04;99951.66;;;23.04;40.46
79269;BME280;68714;48.586;7.772;2023-05-23T16:14:30;99954.16;;;22.95;40.29
79269;BME280;68714;48.586;7.772;2023-05-23T16:16:59;99952.88;;;22.80;40.43
79269;BME280;68714;48.586;7.772;2023-05-23T16:19:27;99957.69;;;22.76;40.14
79269;BME280;68714;48.586;7.772;2023-05-23T16:21:53;99951.03;;;22.71;40.30
79269;BME280;68714;48.586;7.772;2023-05-23T16:24:19;99954.13;;;22.66;40.16
79269;BME280;68714;48.586;7.772;2023-05-23T16:26:47;99955.28;;;22.64;40.36
79269;BME280;68714;48.586;7.772;2023-05-23T16:29:12;99950.75;;;22.64;40.58
79269;BME280;68714;48.586;7.772;2023-05-23T16:31:38;99947.03;;;22.55;40.73
79269;BME280;68714;48.586;7.772;2023-05-23T16:34:04;99949.53;;;22.37;40.78
79269;BME280;68714;48.586;7.772;2023-05-23T16:36:29;99951.19;;;22.29;40.62
79269;BME280;68714;48.586;7.772;2023-05-23T16:38:55;99954.97;;;22.47;41.20
79269;BME280;68714;48.586;7.772;2023-05-23T16:41:21;99949.88;;;22.54;40.58
79269;BME280;68714;48.586;7.772;2023-05-23T16:43:48;99945.09;;;22.57;40.74
79269;BME280;68714;48.586;7.772;2023-05-23T16:46:14;99945.38;;;22.64;40.41
79269;BME280;68714;48.586;7.772;2023-05-23T16:48:40;99947.59;;;22.49;40.42
79269;BME280;68714;48.586;7.772;2023-05-23T16:51:05;99943.88;;;22.31;40.76
79269;BME280;68714;48.586;7.772;2023-05-23T16:53:31;99946.50;;;22.21;40.94
79269;BME280;68714;48.586;7.772;2023-05-23T16:55:56;99947.31;;;22.12;41.03
79269;BME280;68714;48.586;7.772;2023-05-23T16:58:22;99949.78;;;21.94;40.94
79269;BME280;68714;48.586;7.772;2023-05-23T17:00:48;99951.69;;;21.82;40.80
79269;BME280;68714;48.586;7.772;2023-05-23T17:03:34;99948.41;;;21.78;40.97
79269;BME280;68714;48.586;7.772;2023-05-23T17:06:09;99954.50;;;21.80;39.96
79269;BME280;68714;48.586;7.772;2023-05-23T17:08:36;99952.41;;;21.84;40.81
79269;BME280;68714;48.586;7.772;2023-05-23T17:11:01;99949.91;;;21.92;40.90
79269;BME280;68714;48.586;7.772;2023-05-23T17:13:27;99942.16;;;21.99;41.07
79269;BME280;68714;48.586;7.772;2023-05-23T17:15:53;99949.25;;;22.09;40.72
79269;BME280;68714;48.586;7.772;2023-05-23T17:18:18;99941.69;;;22.24;40.80
79269;BME280;68714;48.586;7.772;2023-05-23T17:20:44;99947.44;;;22.41;40.74
79269;BME280;68714;48.586;7.772;2023-05-23T17:23:09;99945.44;;;22.43;40.76
79269;BME280;68714;48.586;7.772;2023-05-23T17:25:36;99951.56;;;22.45;40.50
79269;BME280;68714;48.586;7.772;2023-05-23T17:28:01;99945.44;;;22.33;40.91
79269;BME280;68714;48.586;7.772;2023-05-23T17:30:27;99945.22;;;22.25;41.41
79269;BME280;68714;48.586;7.772;2023-05-23T17:32:53;99953.50;;;22.02;41.92
79269;BME280;68714;48.586;7.772;2023-05-23T17:35:19;99954.47;;;21.70;42.38
79269;BME280;68714;48.586;7.772;2023-05-23T17:37:45;99952.47;;;21.51;42.83
79269;BME280;68714;48.586;7.772;2023-05-23T17:40:11;99950.09;;;21.37;43.20
79269;BME280;68714;48.586;7.772;2023-05-23T17:42:40;99949.25;;;21.15;43.61
79269;BME280;68714;48.586;7.772;2023-05-23T17:45:07;99946.09;;;21.10;43.66
79269;BME280;68714;48.586;7.772;2023-05-23T17:47:35;99960.75;;;20.95;44.22
79269;BME280;68714;48.586;7.772;2023-05-23T17:50:02;99954.59;;;20.83;44.40
79269;BME280;68714;48.586;7.772;2023-05-23T17:52:28;99972.69;;;20.70;44.71
79269;BME280;68714;48.586;7.772;2023-05-23T20:00:15;100128.34;;;17.70;50.21
79269;BME280;68714;48.586;7.772;2023-05-23T20:02:41;100118.75;;;17.68;50.51
79269;BME280;68714;48.586;7.772;2023-05-23T20:05:10;100132.00;;;17.69;50.56
79269;BME280;68714;48.586;7.772;2023-05-23T20:07:37;100123.41;;;17.64;50.70
79269;BME280;68714;48.586;7.772;2023-05-23T20:10:04;100131.63;;;17.61;50.58
79269;BME280;68714;48.586;7.772;2023-05-23T20:12:30;100134.28;;;17.61;50.59
79269;BME280;68714;48.586;7.772;2023-05-23T20:14:57;100143.19;;;17.61;50.85
79269;BME280;68714;48.586;7.772;2023-05-23T20:17:23;100144.31;;;17.57;50.82
79269;BME280;68714;48.586;7.772;2023-05-23T20:19:48;100156.25;;;17.52;51.23
79269;BME280;68714;48.586;7.772;2023-05-23T20:22:14;100160.19;;;17.46;51.32
79269;BME280;68714;48.586;7.772;2023-05-23T20:24:40;100163.16;;;17.41;51.27
79269;BME280;68714;48.586;7.772;2023-05-23T20:27:06;100173.34;;;17.35;51.31
79269;BME280;68714;48.586;7.772;2023-05-23T20:29:31;100178.22;;;17.28;51.30
79269;BME280;68714;48.586;7.772;2023-05-23T20:32:02;100175.13;;;17.21;51.50
79269;BME280;68714;48.586;7.772;2023-05-23T20:34:27;100175.13;;;17.21;51.46
79269;BME280;68714;48.586;7.772;2023-05-23T20:36:53;100176.25;;;17.17;51.39
79269;BME280;68714;48.586;7.772;2023-05-23T20:39:19;100182.44;;;17.18;51.44
79269;BME280;68714;48.586;7.772;2023-05-23T20:41:45;100191.41;;;17.17;51.23
79269;BME280;68714;48.586;7.772;2023-05-23T20:44:11;100188.06;;;17.13;51.21
79269;BME280;68714;48.586;7.772;2023-05-23T20:46:38;100188.25;;;17.10;51.36
79269;BME280;68714;48.586;7.772;2023-05-23T20:49:07;100197.31;;;16.93;52.15
79269;BME280;68714;48.586;7.772;2023-05-23T20:51:36;100201.78;;;16.92;51.18
79269;BME280;68714;48.586;7.772;2023-05-23T20:54:03;100206.44;;;16.89;51.33
79269;BME280;68714;48.586;7.772;2023-05-23T20:56:30;100207.50;;;16.86;51.18
79269;BME280;68714;48.586;7.772;2023-05-23T20:58:55;100213.19;;;16.80;51.17
79269;BME280;68714;48.586;7.772;2023-05-23T21:01:22;100217.81;;;16.76;51.11
79269;BME280;68714;48.586;7.772;2023-05-23T21:03:48;100211.84;;;16.73;51.30
79269;BME280;68714;48.586;7.772;2023-05-23T21:06:14;100212.78;;;16.72;51.07
79269;BME280;68714;48.586;7.772;2023-05-23T21:08:40;100219.34;;;16.66;50.97
79269;BME280;68714;48.586;7.772;2023-05-23T21:11:07;100220.56;;;16.61;50.84
79269;BME280;68714;48.586;7.772;2023-05-23T21:13:32;100217.34;;;16.55;50.71
79269;BME280;68714;48.586;7.772;2023-05-23T21:15:58;100216.75;;;16.50;50.54
79269;BME280;68714;48.586;7.772;2023-05-23T21:18:23;100216.84;;;16.49;50.44
79269;BME280;68714;48.586;7.772;2023-05-23T21:20:49;100213.59;;;16.44;50.32
79269;BME280;68714;48.586;7.772;2023-05-23T21:23:15;100206.16;;;16.34;50.29
79269;BME280;68714;48.586;7.772;2023-05-23T21:25:40;100195.78;;;16.30;50.15
79269;BME280;68714;48.586;7.772;2023-05-23T21:28:06;100199.66;;;16.24;50.00
79269;BME280;68714;48.586;7.772;2023-05-23T21:30:31;100196.25;;;16.22;49.61
79269;BME280;68714;48.586;7.772;2023-05-23T21:32:56;100191.28;;;16.16;49.53
79269;BME280;68714;48.586;7.772;2023-05-23T21:35:22;100192.22;;;16.15;49.35
79269;BME280;68714;48.586;7.772;2023-05-23T21:37:47;100198.66;;;16.11;49.39
79269;BME280;68714;48.586;7.772;2023-05-23T21:40:13;100197.22;;;16.05;49.66
79269;BME280;68714;48.586;7.772;2023-05-23T21:42:39;100193.88;;;16.01;49.42
79269;BME280;68714;48.586;7.772;2023-05-23T21:45:05;100195.88;;;15.98;49.48
79269;BME280;68714;48.586;7.772;2023-05-23T21:47:31;100199.63;;;15.94;49.44
79269;BME280;68714;48.586;7.772;2023-05-23T21:49:56;100202.47;;;15.91;49.42
79269;BME280;68714;48.586;7.772;2023-05-23T21:52:22;100198.22;;;15.88;49.53
79269;BME280;68714;48.586;7.772;2023-05-23T21:54:47;100196.66;;;15.84;49.62
79269;BME280;68714;48.586;7.772;2023-05-23T21:57:14;100205.50;;;15.84;49.43
79269;BME280;68714;48.586;7.772;2023-05-23T21:59:39;100202.94;;;15.83;49.47
79269;BME280;68714;48.586;7.772;2023-05-23T22:02:06;100201.47;;;15.77;49.57
79269;BME280;68714;48.586;7.772;2023-05-23T22:04:31;100207.00;;;15.73;49.72
79269;BME280;68714;48.586;7.772;2023-05-23T22:06:57;100206.16;;;15.72;49.53
79269;BME280;68714;48.586;7.772;2023-05-23T22:09:24;100205.22;;;15.73;49.53
79269;BME280;68714;48.586;7.772;2023-05-23T22:11:51;100216.22;;;15.67;49.57
79269;BME280;68714;48.586;7.772;2023-05-23T22:14:16;100215.44;;;15.65;49.58
79269;BME280;68714;48.586;7.772;2023-05-23T22:16:42;100212.84;;;15.63;49.59
79269;BME280;68714;48.586;7.772;2023-05-23T22:19:07;100218.44;;;15.59;49.65
79269;BME280;68714;48.586;7.772;2023-05-23T22:21:34;100223.94;;;15.56;49.63
79269;BME280;68714;48.586;7.772;2023-05-23T22:24:01;100217.94;;;15.52;49.67
79269;BME280;68714;48.586;7.772;2023-05-23T22:26:26;100221.53;;;15.51;49.36
79269;BME280;68714;48.586;7.772;2023-05-23T22:28:52;100222.75;;;15.45;49.68
79269;BME280;68714;48.586;7.772;2023-05-23T22:31:18;100219.47;;;15.40;49.66
79269;BME280;68714;48.586;7.772;2023-05-23T22:33:44;100220.44;;;15.39;49.68
79269;BME280;68714;48.586;7.772;2023-05-23T22:36:09;100221.53;;;15.35;49.74
79269;BME280;68714;48.586;7.772;2023-05-23T22:38:38;100230.63;;;15.31;49.78
79269;BME280;68714;48.586;7.772;2023-05-23T22:41:03;100236.09;;;15.28;49.72
79269;BME280;68714;48.586;7.772;2023-05-23T22:43:29;100228.91;;;15.30;49.81